Time;durP1;ratioP1;P1;durP2;ratioP2;P2;SDS_P1;SDS_P2;PMS_P1;PMS_P2;Temp;Humidity;BMP_temperature;BMP_pressure;BME280_temperature;BME280_humidity;BME280_pressure;Samples;Min_cycle;Max_cycle;Signal;HPM_P1;HPM_P2
2022/11/14 00:01:55;;;;;;;17.02;15.38;;;;;;;8.29;100.00;102196.63;4915260;29;20210;-43
2022/11/14 00:04:39;;;;;;;18.40;16.40;;;;;;;8.30;100.00;102180.59;4917131;29;20234;-41
2022/11/14 00:07:23;;;;;;;19.13;17.33;;;;;;;8.29;100.00;102180.59;4920454;29;20230;-42
2022/11/14 00:10:07;;;;;;;18.70;16.90;;;;;;;8.27;100.00;102193.09;4912347;29;20696;-42
2022/11/14 00:12:51;;;;;;;18.25;16.48;;;;;;;8.32;100.00;102199.28;4916496;29;20210;-42
2022/11/14 00:15:36;;;;;;;18.20;16.40;;;;;;;8.31;100.00;102181.47;4917712;29;20226;-41
2022/11/14 00:18:21;;;;;;;19.08;17.17;;;;;;;8.27;100.00;102171.75;4917065;29;20214;-44
2022/11/14 00:21:05;;;;;;;18.70;16.88;;;;;;;8.27;100.00;102174.41;4918920;29;20246;-41
2022/11/14 00:23:49;;;;;;;19.58;17.63;;;;;;;8.28;100.00;102170.84;4917461;29;20664;-42
2022/11/14 00:26:33;;;;;;;19.20;17.33;;;;;;;8.21;100.00;102170.00;4920040;29;20914;-43
2022/11/14 00:29:17;;;;;;;19.98;18.00;;;;;;;8.19;100.00;102170.00;4928646;29;20640;-44
2022/11/14 00:32:01;;;;;;;19.65;17.65;;;;;;;8.19;100.00;102161.09;4919941;29;20194;-43
2022/11/14 00:34:45;;;;;;;20.83;18.75;;;;;;;8.16;100.00;102161.13;4915460;29;20195;-42
2022/11/14 00:37:29;;;;;;;19.70;17.70;;;;;;;8.15;100.00;102156.69;4914259;29;20286;-41
2022/11/14 00:40:13;;;;;;;19.90;17.83;;;;;;;8.13;100.00;102154.00;4917657;29;20201;-41
2022/11/14 00:42:57;;;;;;;19.73;17.63;;;;;;;8.11;100.00;102139.81;4914124;29;20195;-44
2022/11/14 00:45:45;;;;;;;21.13;19.02;;;;;;;8.02;100.00;102140.75;4915635;29;20230;-41
2022/11/14 00:48:29;;;;;;;21.25;18.95;;;;;;;8.00;100.00;102138.97;4916800;29;20195;-42
2022/11/14 00:51:13;;;;;;;21.67;19.38;;;;;;;8.02;100.00;102132.75;4916642;29;20704;-42
2022/11/14 00:53:57;;;;;;;21.13;19.02;;;;;;;7.98;100.00;102133.66;4918189;29;20291;-42
2022/11/14 00:56:41;;;;;;;21.52;19.30;;;;;;;7.99;100.00;102130.09;4916118;29;20611;-43
2022/11/14 00:59:25;;;;;;;23.05;20.65;;;;;;;7.91;100.00;102134.56;4915284;29;20645;-42
2022/11/14 01:02:09;;;;;;;21.88;18.73;;;;;;;7.94;100.00;102128.38;4911789;29;20615;-41
2022/11/14 01:04:53;;;;;;;21.45;19.15;;;;;;;7.87;100.00;102113.25;4914904;29;20592;-41
2022/11/14 01:07:36;;;;;;;21.40;19.17;;;;;;;7.84;100.00;102122.19;4919319;29;20319;-41
2022/11/14 01:10:21;;;;;;;23.60;20.60;;;;;;;7.82;100.00;102122.19;4919763;29;20210;-41
2022/11/14 01:13:05;;;;;;;22.38;20.10;;;;;;;7.82;100.00;102111.50;4912154;29;20242;-41
2022/11/14 01:15:49;;;;;;;23.23;20.73;;;;;;;7.79;100.00;102116.88;4918199;29;20261;-41
2022/11/14 01:18:33;;;;;;;22.98;20.42;;;;;;;7.78;100.00;102103.53;4914619;29;20567;-42
2022/11/14 01:21:17;;;;;;;23.83;21.27;;;;;;;7.78;100.00;102108.88;4912774;29;20619;-42
2022/11/14 01:24:01;;;;;;;23.90;21.45;;;;;;;7.74;100.00;102091.09;4915135;29;20211;-41
2022/11/14 01:26:45;;;;;;;23.45;20.85;;;;;;;7.73;100.00;102098.22;4915599;29;20593;-42
2022/11/14 01:29:29;;;;;;;24.80;21.75;;;;;;;7.72;100.00;102092.91;4915501;29;20179;-40
2022/11/14 01:32:13;;;;;;;27.35;22.98;;;;;;;7.66;100.00;102092.97;4919306;29;20221;-43
2022/11/14 01:34:57;;;;;;;24.33;21.55;;;;;;;7.59;100.00;102086.78;4918107;29;20318;-40
2022/11/14 01:37:41;;;;;;;29.65;23.73;;;;;;;7.56;100.00;102089.44;4917252;29;20766;-42
2022/11/14 01:40:25;;;;;;;26.40;23.50;;;;;;;7.50;100.00;102090.38;4914687;29;20723;-41
2022/11/14 01:43:15;;;;;;;26.75;23.88;;;;;;;7.44;100.00;102079.75;4916416;29;20211;-42
2022/11/14 01:46:04;;;;;;;26.67;23.13;;;;;;;7.48;100.00;102080.59;4918142;29;20273;-41
2022/11/14 01:48:48;;;;;;;27.38;24.33;;;;;;;7.42;100.00;102074.41;4935558;29;20199;-41
2022/11/14 01:51:46;;;;;;;28.42;24.58;;;;;;;7.43;100.00;102072.63;4921888;29;20201;-42
2022/11/14 01:54:41;;;;;;;29.35;24.98;;;;;;;7.46;100.00;102066.41;4921904;29;20206;-42
2022/11/14 01:57:32;;;;;;;30.30;25.27;;;;;;;7.45;100.00;102062.81;4919548;29;20203;-42
2022/11/14 02:00:16;;;;;;;29.27;25.02;;;;;;;7.49;100.00;102053.03;4918638;29;20206;-43
2022/11/14 02:03:01;;;;;;;30.30;25.25;;;;;;;7.48;100.00;102036.16;4920906;29;20198;-43
2022/11/14 02:05:49;;;;;;;32.25;25.10;;;;;;;7.51;100.00;102020.13;4917997;29;20230;-42
2022/11/14 02:08:34;;;;;;;39.58;29.05;;;;;;;7.48;100.00;102029.91;4918171;29;20676;-42
2022/11/14 02:11:18;;;;;;;33.00;26.52;;;;;;;7.50;100.00;102029.03;4917921;29;20203;-42
2022/11/14 02:14:03;;;;;;;32.65;26.65;;;;;;;7.53;100.00;102029.00;4921934;29;20205;-43
2022/11/14 02:16:47;;;;;;;34.42;25.63;;;;;;;7.52;100.00;102027.25;4921944;29;20456;-43
2022/11/14 02:19:45;;;;;;;35.50;28.17;;;;;;;7.52;100.00;102013.00;4919141;29;20270;-42
2022/11/14 02:22:29;;;;;;;33.53;26.60;;;;;;;7.52;100.00;102002.34;4921423;29;20317;-42
2022/11/14 02:25:16;;;;;;;33.38;27.20;;;;;;;7.54;100.00;102009.47;4921450;29;20191;-42
2022/11/14 02:28:01;;;;;;;32.65;27.00;;;;;;;7.55;100.00;101997.00;4919983;29;20262;-42
2022/11/14 02:30:45;;;;;;;32.08;25.23;;;;;;;7.58;100.00;101988.97;4916345;29;20337;-42
2022/11/14 02:33:29;;;;;;;32.72;26.42;;;;;;;7.56;100.00;101980.97;4920975;29;20222;-42
2022/11/14 02:36:13;;;;;;;33.05;25.92;;;;;;;7.56;100.00;101990.75;4913974;29;20227;-41
2022/11/14 02:38:57;;;;;;;32.35;26.27;;;;;;;7.54;100.00;101992.56;4915499;29;20227;-42
2022/11/14 02:41:41;;;;;;;32.72;26.83;;;;;;;7.55;100.00;101997.88;4922345;29;20222;-41
2022/11/14 02:44:25;;;;;;;32.35;26.38;;;;;;;7.56;100.00;101983.63;4920172;29;20237;-43
2022/11/14 02:47:09;;;;;;;34.95;26.75;;;;;;;7.51;100.00;101988.13;4918518;29;20242;-41
2022/11/14 02:49:53;;;;;;;34.22;26.20;;;;;;;7.51;100.00;101979.25;4918306;29;20242;-43
2022/11/14 02:52:37;;;;;;;31.75;25.98;;;;;;;7.52;100.00;101978.34;4920432;29;20274;-43
2022/11/14 02:55:22;;;;;;;34.05;26.15;;;;;;;7.49;100.00;101968.59;4917115;28;20202;-43
2022/11/14 02:58:06;;;;;;;32.33;26.15;;;;;;;7.48;100.00;101971.25;4917137;28;20588;-43
2022/11/14 03:00:50;;;;;;;32.80;27.27;;;;;;;7.46;100.00;101955.28;4918652;29;20717;-40
2022/11/14 03:03:35;;;;;;;34.50;27.05;;;;;;;7.50;100.00;101958.81;4920078;29;20257;-42
2022/11/14 03:06:18;;;;;;;33.72;26.13;;;;;;;7.48;100.00;101958.84;4917356;29;20218;-43
2022/11/14 03:09:02;;;;;;;30.15;24.80;;;;;;;7.46;100.00;101946.41;4921427;29;20279;-43
2022/11/14 03:11:46;;;;;;;28.10;23.83;;;;;;;7.42;100.00;101948.22;4917388;29;20195;-44
2022/11/14 03:14:30;;;;;;;30.33;25.25;;;;;;;7.41;100.00;101950.00;4919277;29;20293;-42
2022/11/14 03:17:14;;;;;;;30.85;25.48;;;;;;;7.47;100.00;101940.16;4921160;29;20247;-42
2022/11/14 03:19:59;;;;;;;29.35;23.90;;;;;;;7.40;100.00;101942.88;4920862;29;20267;-41
2022/11/14 03:22:43;;;;;;;29.75;23.65;;;;;;;7.41;100.00;101949.09;4921692;29;20282;-42
2022/11/14 03:25:27;;;;;;;28.73;22.52;;;;;;;7.37;100.00;101937.56;4918000;29;20317;-42
2022/11/14 03:28:11;;;;;;;29.67;24.20;;;;;;;7.36;100.00;101926.91;4920702;29;20202;-44
2022/11/14 03:30:55;;;;;;;28.02;23.88;;;;;;;7.38;100.00;101928.66;4919318;29;20199;-43
2022/11/14 03:33:39;;;;;;;29.85;24.08;;;;;;;7.35;100.00;101923.38;4918617;29;20211;-43
2022/11/14 03:36:23;;;;;;;30.65;23.70;;;;;;;7.28;100.00;101934.06;4918375;29;20225;-43
2022/11/14 03:39:08;;;;;;;31.25;23.27;;;;;;;7.30;100.00;101927.81;4920447;29;20226;-42
2022/11/14 03:41:52;;;;;;;29.85;24.00;;;;;;;7.28;100.00;101924.31;4920777;29;20233;-42
2022/11/14 03:44:36;;;;;;;26.98;22.50;;;;;;;7.26;100.00;101928.78;4916949;29;20246;-43
2022/11/14 03:47:20;;;;;;;26.88;23.30;;;;;;;7.23;100.00;101934.97;4919780;29;20309;-42
2022/11/14 03:50:04;;;;;;;29.90;23.52;;;;;;;7.23;100.00;101920.78;4916804;29;20276;-44
2022/11/14 03:52:49;;;;;;;27.27;22.85;;;;;;;7.25;100.00;101916.31;4916530;29;20223;-42
2022/11/14 03:55:33;;;;;;;31.20;23.45;;;;;;;7.22;100.00;101921.69;4922442;29;20295;-40
2022/11/14 03:58:17;;;;;;;32.72;24.25;;;;;;;7.23;100.00;101910.13;4916608;29;20291;-40
2022/11/14 04:01:02;;;;;;;28.13;23.65;;;;;;;7.17;100.00;101908.41;4919165;29;20295;-42
2022/11/14 04:03:46;;;;;;;27.83;23.35;;;;;;;7.21;100.00;101904.81;4920409;29;20618;-42
2022/11/14 04:06:30;;;;;;;26.65;22.85;;;;;;;7.21;100.00;101907.50;4918922;29;20222;-43
2022/11/14 04:09:14;;;;;;;29.50;23.60;;;;;;;7.18;100.00;101906.63;4916532;29;20230;-43
2022/11/14 04:11:58;;;;;;;29.08;23.35;;;;;;;7.17;100.00;101902.16;4921133;29;20579;-43
2022/11/14 04:14:42;;;;;;;29.55;24.30;;;;;;;7.18;100.00;101890.63;4921007;29;20187;-43
2022/11/14 04:17:26;;;;;;;32.75;24.77;;;;;;;7.09;100.00;101898.69;4917945;29;20199;-43
2022/11/14 04:20:13;;;;;;;29.48;24.10;;;;;;;7.11;100.00;101881.78;4917056;29;20246;-43
2022/11/14 04:22:57;;;;;;;29.55;24.00;;;;;;;7.10;100.00;101884.44;4922394;29;20226;-42
2022/11/14 04:25:43;;;;;;;30.30;24.42;;;;;;;7.08;100.00;101886.25;4912183;29;20238;-40
2022/11/14 04:28:27;;;;;;;30.92;23.73;;;;;;;7.06;100.00;101882.69;4916844;29;20238;-42
2022/11/14 04:31:10;;;;;;;30.75;24.20;;;;;;;7.12;100.00;101872.88;4918151;29;20211;-42
2022/11/14 04:33:55;;;;;;;32.10;24.92;;;;;;;7.08;100.00;101872.91;4918323;29;20194;-43
2022/11/14 04:36:38;;;;;;;30.52;25.00;;;;;;;7.07;100.00;101866.72;4915408;29;20239;-41
2022/11/14 04:39:22;;;;;;;30.55;24.58;;;;;;;7.04;100.00;101874.75;4915734;29;20295;-40
2022/11/14 04:42:06;;;;;;;32.38;25.40;;;;;;;7.03;100.00;101870.28;4917087;29;20226;-40
2022/11/14 04:44:51;;;;;;;31.65;23.88;;;;;;;6.99;100.00;101872.06;4920584;29;20215;-42
2022/11/14 04:47:35;;;;;;;31.77;24.15;;;;;;;7.00;100.00;101863.19;4925928;29;20234;-43
2022/11/14 04:50:20;;;;;;;29.75;24.15;;;;;;;7.03;100.00;101856.09;4919962;29;20270;-43
2022/11/14 04:53:04;;;;;;;31.45;23.90;;;;;;;7.03;100.00;101846.31;4916371;29;20325;-40
2022/11/14 04:55:48;;;;;;;26.95;23.15;;;;;;;7.03;100.00;101845.44;4913853;29;20294;-41
2022/11/14 04:58:32;;;;;;;27.13;22.60;;;;;;;7.10;100.00;101842.69;4915889;29;20210;-42
2022/11/14 05:01:16;;;;;;;29.45;23.75;;;;;;;7.04;100.00;101839.19;4920432;29;20248;-42
2022/11/14 05:04:00;;;;;;;29.17;23.27;;;;;;;6.96;100.00;101840.13;4920251;29;20251;-42
2022/11/14 05:06:44;;;;;;;30.67;23.98;;;;;;;6.97;100.00;101852.56;4920597;29;20302;-42
2022/11/14 05:09:28;;;;;;;30.50;22.73;;;;;;;6.98;100.00;101853.47;4913308;29;20267;-41
2022/11/14 05:12:12;;;;;;;29.63;24.20;;;;;;;7.06;100.00;101850.72;4916625;29;20567;-41
2022/11/14 05:14:56;;;;;;;30.00;23.15;;;;;;;6.97;100.00;101846.34;4915804;29;20311;-40
2022/11/14 05:17:40;;;;;;;31.35;23.35;;;;;;;6.97;100.00;101846.34;4918596;29;20274;-44
2022/11/14 05:20:24;;;;;;;26.95;21.77;;;;;;;6.97;100.00;101841.88;4916064;29;20211;-44
2022/11/14 05:23:22;;;;;;;27.60;22.50;;;;;;;6.95;100.00;101845.47;4916993;29;20242;-42
2022/11/14 05:26:17;;;;;;;26.88;22.58;;;;;;;6.94;100.00;101836.59;4916611;29;20281;-42
2022/11/14 05:29:01;;;;;;;27.63;23.17;;;;;;;6.97;100.00;101841.00;4918474;29;20222;-41
2022/11/14 05:31:45;;;;;;;29.45;23.00;;;;;;;6.93;100.00;101848.16;4915595;29;20226;-43
2022/11/14 05:34:29;;;;;;;26.45;21.50;;;;;;;6.94;100.00;101831.28;4918905;29;20237;-40
2022/11/14 05:37:13;;;;;;;27.63;22.58;;;;;;;6.93;100.00;101839.25;4914779;29;20306;-42
2022/11/14 05:39:57;;;;;;;26.70;22.55;;;;;;;6.91;100.00;101828.63;4917033;29;20242;-45
2022/11/14 05:42:41;;;;;;;26.67;22.27;;;;;;;6.89;100.00;101827.75;4936405;29;20202;-48
2022/11/14 05:45:25;;;;;;;27.33;22.92;;;;;;;6.87;100.00;101823.34;4911228;29;20377;-47
2022/11/14 05:48:09;;;;;;;26.73;22.17;;;;;;;6.87;100.00;101826.88;4911544;29;20712;-43
2022/11/14 05:50:57;;;;;;;27.48;21.98;;;;;;;6.89;100.00;101829.56;4915212;29;20206;-44
2022/11/14 05:53:41;;;;;;;27.85;22.67;;;;;;;6.88;100.00;101819.78;4911385;29;20214;-47
2022/11/14 05:56:25;;;;;;;25.58;20.52;;;;;;;6.86;100.00;101826.88;4923832;29;20698;-48
2022/11/14 05:59:09;;;;;;;26.38;21.75;;;;;;;6.86;100.00;101829.56;4914120;29;20219;-42
2022/11/14 06:01:53;;;;;;;27.55;22.20;;;;;;;6.87;100.00;101818.91;4915008;29;20183;-44
2022/11/14 06:04:37;;;;;;;26.10;21.67;;;;;;;6.86;100.00;101819.78;4921848;29;20187;-44
2022/11/14 06:07:21;;;;;;;26.23;21.60;;;;;;;6.86;100.00;101817.13;4924419;29;20537;-45
2022/11/14 06:10:06;;;;;;;26.50;22.55;;;;;;;6.87;100.00;101823.34;4915744;29;20258;-44
2022/11/14 06:12:50;;;;;;;34.40;22.88;;;;;;;6.85;100.00;101815.34;4910575;29;20234;-46
2022/11/14 06:15:34;;;;;;;25.35;21.15;;;;;;;6.91;100.00;101825.06;4912103;29;20223;-47
2022/11/14 06:18:18;;;;;;;28.50;22.38;;;;;;;6.89;100.00;101827.75;4911902;29;20203;-43
2022/11/14 06:21:14;;;;;;;26.25;21.58;;;;;;;6.86;100.00;101817.13;4919697;29;20269;-43
2022/11/14 06:23:58;;;;;;;28.63;22.73;;;;;;;6.89;100.00;101821.56;4919629;29;20248;-43
2022/11/14 06:26:42;;;;;;;28.27;22.05;;;;;;;6.87;100.00;101815.34;4928874;29;20702;-44
2022/11/14 06:29:26;;;;;;;28.08;22.50;;;;;;;6.84;100.00;101816.22;4922072;29;20253;-46
2022/11/14 06:32:10;;;;;;;25.58;22.42;;;;;;;6.85;100.00;101841.13;4922286;29;20327;-46
2022/11/14 06:34:54;;;;;;;27.60;22.17;;;;;;;6.85;100.00;101819.81;4922319;29;20206;-47
2022/11/14 06:37:38;;;;;;;26.83;21.92;;;;;;;6.94;100.00;101820.63;4920093;29;20182;-45
2022/11/14 06:40:22;;;;;;;26.13;22.33;;;;;;;6.89;100.00;101818.91;4924410;29;20253;-45
2022/11/14 06:43:05;;;;;;;26.83;22.30;;;;;;;6.86;100.00;101829.56;4925668;29;20203;-44
2022/11/14 06:45:53;;;;;;;27.75;23.05;;;;;;;6.84;100.00;101820.69;4922964;29;20218;-46
2022/11/14 06:48:37;;;;;;;27.73;22.35;;;;;;;6.84;100.00;101831.34;4926786;29;20194;-47
2022/11/14 06:51:22;;;;;;;27.20;22.48;;;;;;;6.84;100.00;101834.00;4922479;29;20226;-46
2022/11/14 06:54:06;;;;;;;29.23;23.08;;;;;;;6.92;100.00;101841.06;4925832;29;20706;-45
2022/11/14 06:56:50;;;;;;;30.42;23.90;;;;;;;6.87;100.00;101842.88;4920532;29;20261;-46
2022/11/14 06:59:34;;;;;;;27.30;22.55;;;;;;;6.84;100.00;101836.66;4918180;29;20231;-46
2022/11/14 07:02:17;;;;;;;29.33;23.42;;;;;;;6.81;100.00;101833.13;4914008;29;20203;-45
2022/11/14 07:05:01;;;;;;;27.70;22.77;;;;;;;6.83;100.00;101835.78;4914930;29;20562;-46
2022/11/14 07:07:45;;;;;;;30.77;24.67;;;;;;;6.76;100.00;101839.41;4922288;29;20559;-45
2022/11/14 07:10:29;;;;;;;28.90;22.15;;;;;;;6.81;100.00;101835.78;4914821;29;20631;-46
2022/11/14 07:13:13;;;;;;;31.50;24.20;;;;;;;6.78;100.00;101835.81;4918566;29;20206;-46
2022/11/14 07:15:58;;;;;;;27.48;22.98;;;;;;;6.79;100.00;101836.69;4925394;29;20349;-46
2022/11/14 07:18:42;;;;;;;27.80;22.73;;;;;;;6.80;100.00;101830.50;4919127;29;20709;-45
2022/11/14 07:21:28;;;;;;;27.23;22.92;;;;;;;6.75;100.00;101838.50;4922936;29;20629;-45
2022/11/14 07:24:13;;;;;;;27.60;22.85;;;;;;;6.69;100.00;101840.31;4918912;29;20210;-47
2022/11/14 07:26:57;;;;;;;31.90;24.40;;;;;;;6.70;100.00;101834.09;4912943;29;20285;-48
2022/11/14 07:29:41;;;;;;;30.08;23.52;;;;;;;6.76;100.00;101832.28;4916668;29;20194;-46
2022/11/14 07:32:25;;;;;;;32.78;24.13;;;;;;;6.69;100.00;101833.22;4914995;29;20203;-45
2022/11/14 07:35:09;;;;;;;31.38;24.60;;;;;;;6.77;100.00;101833.16;4918052;29;20285;-46
2022/11/14 07:37:59;;;;;;;32.80;24.73;;;;;;;6.72;100.00;101833.19;4918221;29;20203;-46
2022/11/14 07:40:52;;;;;;;34.83;25.20;;;;;;;6.70;100.00;101831.44;4925519;29;20711;-47
2022/11/14 07:43:36;;;;;;;32.00;24.25;;;;;;;6.74;100.00;101814.56;4912116;29;20741;-45
2022/11/14 07:46:20;;;;;;;29.23;24.02;;;;;;;6.74;100.00;101828.75;4923465;29;20337;-44
2022/11/14 07:49:04;;;;;;;30.98;24.08;;;;;;;6.78;100.00;101813.63;4924073;29;20242;-45
2022/11/14 07:51:48;;;;;;;33.50;24.83;;;;;;;6.69;100.00;101819.00;4917791;29;20199;-45
2022/11/14 07:54:32;;;;;;;33.95;25.85;;;;;;;6.65;100.00;101823.47;4924257;29;20302;-45
2022/11/14 07:57:16;;;;;;;35.83;26.45;;;;;;;6.61;100.00;101821.72;4918463;29;20253;-46
2022/11/14 08:00:00;;;;;;;33.97;26.83;;;;;;;6.59;100.00;101824.38;4919609;29;20691;-46
2022/11/14 08:02:45;;;;;;;35.50;25.95;;;;;;;6.60;100.00;101826.19;4925887;29;20306;-47
2022/11/14 08:05:29;;;;;;;34.13;25.85;;;;;;;6.57;100.00;101815.53;4916147;29;20223;-45
2022/11/14 08:08:13;;;;;;;33.90;25.27;;;;;;;6.63;100.00;101798.63;4919580;29;20206;-44
2022/11/14 08:10:58;;;;;;;33.90;26.20;;;;;;;6.69;100.00;101808.34;4916136;29;20256;-45
2022/11/14 08:13:42;;;;;;;35.15;26.27;;;;;;;6.66;100.00;101803.06;4918317;28;20616;-45
2022/11/14 08:16:26;;;;;;;33.22;26.23;;;;;;;6.70;100.00;101800.34;4917412;29;20257;-46
2022/11/14 08:19:10;;;;;;;33.78;25.52;;;;;;;6.72;100.00;101795.03;4914435;29;20318;-45
2022/11/14 08:21:53;;;;;;;38.95;27.33;;;;;;;6.69;100.00;101795.03;4921598;29;20195;-46
2022/11/14 08:24:38;;;;;;;35.28;26.95;;;;;;;6.76;100.00;101802.09;4919093;29;20209;-46
2022/11/14 08:27:22;;;;;;;37.60;27.48;;;;;;;6.73;100.00;101797.66;4916389;29;20206;-45
2022/11/14 08:30:07;;;;;;;36.83;27.63;;;;;;;6.77;100.00;101803.88;4915249;29;20195;-46
2022/11/14 08:32:51;;;;;;;40.00;27.50;;;;;;;6.78;100.00;101797.66;4919250;29;20239;-45
2022/11/14 08:35:35;;;;;;;40.97;27.48;;;;;;;6.79;100.00;101796.75;4923789;29;20633;-46
2022/11/14 08:38:18;;;;;;;37.75;27.55;;;;;;;6.70;100.00;101800.34;4912818;29;20207;-44
2022/11/14 08:41:03;;;;;;;39.30;27.95;;;;;;;6.68;100.00;101804.81;4922405;29;20698;-45
2022/11/14 08:43:47;;;;;;;39.13;27.50;;;;;;;6.75;100.00;101805.66;4920273;29;20245;-46
2022/11/14 08:46:31;;;;;;;39.50;28.92;;;;;;;6.66;100.00;101790.63;4914602;29;20707;-46
2022/11/14 08:49:16;;;;;;;39.13;27.83;;;;;;;6.75;100.00;101801.19;4917487;29;20659;-45
2022/11/14 08:52:00;;;;;;;39.83;29.17;;;;;;;6.74;100.00;101795.91;4916628;29;20203;-46
2022/11/14 08:54:45;;;;;;;39.85;28.65;;;;;;;6.74;100.00;101783.47;4915574;29;20254;-45
2022/11/14 08:57:29;;;;;;;40.33;28.27;;;;;;;6.74;100.00;101778.13;4917134;29;20187;-44
2022/11/14 09:00:13;;;;;;;49.88;30.83;;;;;;;6.73;100.00;101772.81;4915045;29;20238;-46
2022/11/14 09:02:58;;;;;;;42.72;29.38;;;;;;;6.72;100.00;101776.38;4922020;29;20301;-46
2022/11/14 09:05:43;;;;;;;43.75;29.25;;;;;;;6.71;100.00;101761.28;4918821;29;20210;-45
2022/11/14 09:08:28;;;;;;;40.78;29.55;;;;;;;6.79;100.00;101756.78;4916349;29;20207;-45
2022/11/14 09:11:12;;;;;;;40.22;29.45;;;;;;;6.75;100.00;101752.38;4914293;29;20194;-44
2022/11/14 09:13:57;;;;;;;44.13;29.95;;;;;;;6.79;100.00;101756.78;4916289;29;20225;-44
2022/11/14 09:16:41;;;;;;;44.13;30.13;;;;;;;6.79;100.00;101760.34;4914594;29;20297;-44
2022/11/14 09:19:25;;;;;;;41.25;29.13;;;;;;;6.73;100.00;101765.69;4913582;29;20270;-46
2022/11/14 09:22:09;;;;;;;42.20;29.10;;;;;;;6.78;100.00;101761.25;4916215;29;20210;-46
2022/11/14 09:24:53;;;;;;;42.97;28.55;;;;;;;6.83;100.00;101749.69;4914145;29;20198;-45
2022/11/14 09:27:37;;;;;;;43.97;30.73;;;;;;;6.78;100.00;101755.91;4915949;29;20194;-44
2022/11/14 09:30:22;;;;;;;47.90;31.70;;;;;;;6.78;100.00;101755.03;4914166;29;20239;-45
2022/11/14 09:33:06;;;;;;;48.85;32.40;;;;;;;6.84;100.00;101738.97;4930522;29;20275;-46
2022/11/14 09:35:56;;;;;;;46.13;30.45;;;;;;;6.85;100.00;101754.09;4916757;29;20226;-45
2022/11/14 09:38:44;;;;;;;44.05;30.10;;;;;;;6.91;100.00;101740.72;4917977;29;20264;-46
2022/11/14 09:41:46;;;;;;;48.65;32.72;;;;;;;6.80;100.00;101745.25;4925694;29;20238;-45
2022/11/14 09:44:47;;;;;;;47.05;30.73;;;;;;;6.78;100.00;101739.94;4918044;29;20262;-46
2022/11/14 09:47:40;;;;;;;49.75;31.27;;;;;;;6.75;100.00;101734.63;4921843;29;20699;-45
2022/11/14 09:50:35;;;;;;;50.40;31.80;;;;;;;6.77;100.00;101743.47;4916910;29;20591;-47
2022/11/14 09:53:38;;;;;;;43.88;30.25;;;;;;;6.70;100.00;101740.91;4922598;29;20279;-45
2022/11/14 09:56:24;;;;;;;43.22;29.98;;;;;;;6.70;100.00;101735.56;4914547;29;20357;-45
2022/11/14 09:59:10;;;;;;;43.58;29.60;;;;;;;6.71;100.00;101747.97;4916080;29;20231;-44
2022/11/14 10:02:24;;;;;;;44.97;28.50;;;;;;;6.64;100.00;101749.78;4920905;29;20218;-46
2022/11/14 10:05:23;;;;;;;41.20;29.02;;;;;;;6.52;100.00;101748.13;4933386;28;20262;-43
2022/11/14 10:08:26;;;;;;;45.00;29.70;;;;;;;6.63;100.00;101737.41;4922722;29;20601;-45
2022/11/14 10:11:36;;;;;;;45.58;31.48;;;;;;;6.59;100.00;101735.66;4915102;29;20568;-44
2022/11/14 10:14:40;;;;;;;45.38;29.65;;;;;;;6.63;100.00;101744.50;4924613;29;20237;-45
2022/11/14 10:18:01;;;;;;;43.75;30.15;;;;;;;6.52;100.00;101739.25;4920364;29;20289;-44
2022/11/14 10:21:23;;;;;;;48.78;32.15;;;;;;;6.66;100.00;101728.50;4935524;29;20261;-45
2022/11/14 10:24:10;;;;;;;51.78;31.65;;;;;;;6.64;100.00;101727.63;4915676;29;20788;-47
2022/11/14 10:27:01;;;;;;;48.33;32.17;;;;;;;6.48;100.00;101725.06;4917355;29;20218;-44
2022/11/14 10:30:13;;;;;;;46.40;31.58;;;;;;;6.60;100.00;101732.97;4929061;28;20227;-45
2022/11/14 10:33:30;;;;;;;45.28;29.88;;;;;;;6.50;100.00;101715.28;4922127;29;20263;-45
2022/11/14 10:36:38;;;;;;;45.40;29.90;;;;;;;6.48;100.00;101714.41;4920898;29;20227;-45
2022/11/14 10:39:33;;;;;;;44.40;30.05;;;;;;;6.43;100.00;101705.59;4919232;29;20238;-45
2022/11/14 10:42:27;;;;;;;46.17;30.20;;;;;;;6.56;100.00;101717.03;4918513;29;20206;-45
2022/11/14 10:45:24;;;;;;;47.90;30.60;;;;;;;6.66;100.00;101717.84;4918143;29;20354;-46
2022/11/14 10:48:14;;;;;;;45.63;29.73;;;;;;;6.61;100.00;101717.88;4923254;29;20234;-45
2022/11/14 10:51:21;;;;;;;44.85;29.00;;;;;;;6.53;100.00;101709.06;4917941;29;20187;-45
2022/11/14 10:54:16;;;;;;;46.28;30.45;;;;;;;6.48;100.00;101706.44;4923009;29;20323;-45
2022/11/14 10:57:00;;;;;;;50.83;32.42;;;;;;;6.46;100.00;101710.88;4924802;29;20219;-44
2022/11/14 10:59:44;;;;;;;46.63;31.55;;;;;;;6.46;100.00;101702.91;4918902;29;20234;-44
2022/11/14 11:02:47;;;;;;;49.78;30.48;;;;;;;6.51;100.00;101702.84;4924733;29;21281;-47
2022/11/14 11:05:44;;;;;;;48.92;31.90;;;;;;;6.47;100.00;101709.09;4917144;29;20285;-47
2022/11/14 11:11:32;;;;;;;48.72;30.50;;;;;;;6.51;100.00;101687.75;4918864;29;20269;-45
2022/11/14 11:14:18;;;;;;;47.25;30.85;;;;;;;6.69;100.00;101696.50;4922130;29;20680;-45
2022/11/14 11:17:08;;;;;;;43.25;30.20;;;;;;;6.72;100.00;101691.16;4915142;29;20274;-45
2022/11/14 11:19:52;;;;;;;48.80;30.63;;;;;;;6.92;100.00;101677.66;4915174;29;20311;-46
2022/11/14 11:22:37;;;;;;;49.58;32.28;;;;;;;6.77;100.00;101673.34;4925854;28;20320;-45
2022/11/14 11:25:25;;;;;;;43.60;29.95;;;;;;;6.76;100.00;101674.28;4917846;29;20282;-43
2022/11/14 11:28:14;;;;;;;46.45;29.13;;;;;;;6.79;100.00;101663.56;4920772;29;20256;-48
2022/11/14 11:31:02;;;;;;;42.80;29.27;;;;;;;6.83;100.00;101656.44;4921716;29;20684;-48
2022/11/14 11:33:46;;;;;;;42.03;27.95;;;;;;;6.95;100.00;101665.22;4916759;29;20217;-46
2022/11/14 11:36:36;;;;;;;43.25;30.00;;;;;;;6.84;100.00;101658.19;4923359;29;20238;-45
2022/11/14 11:39:26;;;;;;;44.28;30.20;;;;;;;6.86;100.00;101641.31;4917905;29;20273;-45
2022/11/14 11:42:17;;;;;;;43.70;29.92;;;;;;;6.94;100.00;101638.56;4925238;29;20278;-44
2022/11/14 11:45:04;;;;;;;43.72;30.17;;;;;;;7.05;100.00;101639.34;4913414;29;20207;-44
2022/11/14 11:48:09;;;;;;;40.80;28.92;;;;;;;7.00;100.00;101633.19;4922208;29;20206;-44
2022/11/14 11:50:53;;;;;;;41.63;28.40;;;;;;;7.00;100.00;101642.06;4921489;29;20691;-45
2022/11/14 11:53:41;;;;;;;39.75;28.65;;;;;;;7.12;100.00;101627.72;4914879;29;20215;-46
2022/11/14 11:56:30;;;;;;;43.15;28.70;;;;;;;7.18;100.00;101637.44;4916797;29;20226;-45
2022/11/14 11:59:50;;;;;;;48.45;29.98;;;;;;;7.14;100.00;101630.38;4917388;29;20673;-46
2022/11/14 12:02:40;;;;;;;46.92;30.13;;;;;;;7.21;100.00;101624.06;4915711;29;20255;-45
2022/11/14 12:05:41;;;;;;;43.78;29.00;;;;;;;7.14;100.00;101620.59;4923079;29;20274;-45
2022/11/14 12:08:25;;;;;;;43.72;30.67;;;;;;;7.11;100.00;101617.97;4919029;29;20202;-46
2022/11/14 12:11:22;;;;;;;41.35;28.73;;;;;;;7.12;100.00;101610.84;4921616;29;20254;-47
2022/11/14 12:14:18;;;;;;;41.47;29.40;;;;;;;7.15;100.00;101600.13;4917683;29;20253;-46
2022/11/14 12:17:23;;;;;;;43.80;29.23;;;;;;;7.16;100.00;101602.78;4919965;29;20242;-45
2022/11/14 12:20:33;;;;;;;42.55;29.88;;;;;;;7.25;100.00;101601.81;4917037;29;20278;-45
2022/11/14 12:23:35;;;;;;;43.10;28.65;;;;;;;7.28;100.00;101601.78;4923428;29;20238;-45
2022/11/14 12:26:22;;;;;;;40.63;28.58;;;;;;;7.41;100.00;101581.16;4913797;29;20341;-45
2022/11/14 12:29:36;;;;;;;41.15;28.58;;;;;;;7.52;100.00;101583.69;4911970;29;20210;-45
2022/11/14 12:32:36;;;;;;;41.00;27.85;;;;;;;7.71;100.00;101566.53;4917961;29;20613;-47
2022/11/14 12:35:28;;;;;;;42.90;29.98;;;;;;;7.83;100.00;101568.16;4924887;29;20207;-44
2022/11/14 12:38:18;;;;;;;42.65;29.38;;;;;;;7.77;100.00;101562.91;4915382;29;20337;-44
2022/11/14 12:41:02;;;;;;;45.08;30.63;;;;;;;7.75;100.00;101576.25;4921851;29;20206;-45
2022/11/14 12:43:46;;;;;;;47.55;30.52;;;;;;;7.69;100.00;101576.34;4921778;29;20190;-45